Time;durP1;ratioP1;P1;durP2;ratioP2;P2;SDS_P1;SDS_P2;PMS_P1;PMS_P2;Temp;Humidity;BMP_temperature;BMP_pressure;BME280_temperature;BME280_humidity;BME280_pressure;Samples;Min_cycle;Max_cycle;Signal;HPM_P1;HPM_P2
2021/05/25 00:01:14;;;;;;;10.50;10.20;;;10.10;99.90;;;;;;5060037;23;20847;-67
2021/05/25 00:03:40;;;;;;;10.87;10.47;;;10.00;99.90;;;;;;5020502;28;20442;-67
2021/05/25 00:06:07;;;;;;;10.77;10.37;;;9.90;99.90;;;;;;5014185;28;20457;-67
2021/05/25 00:08:33;;;;;;;10.00;9.70;;;9.90;99.90;;;;;;5014241;28;20601;-67
2021/05/25 00:10:59;;;;;;;9.70;9.30;;;9.80;99.90;;;;;;5013856;28;20461;-65
2021/05/25 00:13:25;;;;;;;10.67;10.13;;;9.70;99.90;;;;;;5014109;28;20450;-65
2021/05/25 00:15:53;;;;;;;10.13;9.83;;;9.70;99.90;;;;;;5013902;28;20513;-67
2021/05/25 00:18:20;;;;;;;9.70;9.40;;;9.70;99.90;;;;;;5014046;28;20446;-66
2021/05/25 00:20:47;;;;;;;10.07;9.70;;;9.60;99.90;;;;;;5013620;28;20466;-66
2021/05/25 00:23:14;;;;;;;10.43;10.03;;;9.60;99.90;;;;;;5013857;28;20450;-65
2021/05/25 00:25:40;;;;;;;9.50;9.20;;;9.60;99.90;;;;;;5013560;28;20446;-66
2021/05/25 00:28:06;;;;;;;9.73;9.33;;;9.60;99.90;;;;;;5013337;28;20500;-66
2021/05/25 00:30:33;;;;;;;9.73;9.33;;;9.70;99.90;;;;;;5013587;28;20473;-67
2021/05/25 00:32:59;;;;;;;9.37;8.97;;;9.80;99.90;;;;;;5013920;28;20562;-67
2021/05/25 00:35:26;;;;;;;9.87;9.57;;;9.80;99.90;;;;;;5013932;28;20449;-66
2021/05/25 00:37:53;;;;;;;9.83;9.53;;;9.90;99.90;;;;;;5013740;28;20515;-66
2021/05/25 00:40:20;;;;;;;9.97;9.47;;;9.90;99.90;;;;;;5013507;28;20470;-66
2021/05/25 00:42:46;;;;;;;9.10;8.90;;;9.90;99.90;;;;;;5013566;28;20465;-66
2021/05/25 00:45:15;;;;;;;9.80;9.50;;;9.90;99.90;;;;;;5013793;28;20442;-66
2021/05/25 00:47:41;;;;;;;9.40;9.20;;;9.90;99.90;;;;;;5013530;28;20485;-66
2021/05/25 00:50:10;;;;;;;10.33;9.80;;;9.90;99.90;;;;;;5013284;28;20473;-67
2021/05/25 00:52:41;;;;;;;10.00;9.50;;;9.90;99.90;;;;;;5013455;28;20467;-65
2021/05/25 00:55:12;;;;;;;9.90;9.60;;;9.80;99.90;;;;;;5013425;28;20957;-67
2021/05/25 00:57:39;;;;;;;9.77;9.53;;;9.80;99.90;;;;;;5013493;28;20809;-67
2021/05/25 01:00:07;;;;;;;9.30;9.10;;;9.70;99.90;;;;;;5013048;28;20485;-65
2021/05/25 01:02:34;;;;;;;9.87;9.57;;;9.60;99.90;;;;;;5013448;28;20454;-66
2021/05/25 01:05:01;;;;;;;9.70;9.40;;;9.50;99.90;;;;;;5013344;28;20457;-66
2021/05/25 01:07:27;;;;;;;9.80;9.40;;;9.50;99.90;;;;;;5013144;28;20616;-66
2021/05/25 01:09:56;;;;;;;9.57;9.37;;;9.40;99.90;;;;;;5013002;28;20469;-65
2021/05/25 01:12:24;;;;;;;9.87;9.50;;;9.30;99.90;;;;;;5013114;28;20894;-66
2021/05/25 01:14:55;;;;;;;9.40;9.10;;;9.30;99.90;;;;;;5013109;28;20508;-66
2021/05/25 01:17:22;;;;;;;10.00;9.60;;;9.30;99.90;;;;;;5013022;28;20496;-65
2021/05/25 01:19:48;;;;;;;9.50;9.30;;;9.20;99.90;;;;;;5012743;28;20458;-66
2021/05/25 01:22:15;;;;;;;9.80;9.40;;;9.10;99.90;;;;;;5012867;28;20941;-67
2021/05/25 01:24:41;;;;;;;9.60;9.40;;;9.10;99.90;;;;;;5012971;28;20457;-66
2021/05/25 01:27:08;;;;;;;10.10;9.70;;;9.10;99.90;;;;;;5012671;28;20995;-66
2021/05/25 01:29:38;;;;;;;9.73;9.43;;;9.10;99.90;;;;;;5012653;28;20977;-66
2021/05/25 01:32:05;;;;;;;9.77;9.37;;;9.10;99.90;;;;;;5012811;28;20474;-66
2021/05/25 01:34:31;;;;;;;11.10;10.20;;;9.10;99.90;;;;;;5012875;28;20446;-65
2021/05/25 01:36:57;;;;;;;9.70;9.40;;;9.10;99.90;;;;;;5012435;28;20441;-66
2021/05/25 01:39:24;;;;;;;9.67;9.40;;;9.10;99.90;;;;;;5012391;28;20473;-67
2021/05/25 01:41:52;;;;;;;10.10;9.80;;;9.10;99.90;;;;;;5012620;28;20450;-66
2021/05/25 01:44:18;;;;;;;10.43;9.67;;;9.00;99.90;;;;;;5012686;28;20476;-66
2021/05/25 01:46:45;;;;;;;10.10;9.60;;;9.00;99.90;;;;;;5012573;28;20442;-67
2021/05/25 01:49:13;;;;;;;9.47;9.17;;;9.00;99.90;;;;;;5012204;28;20481;-67
2021/05/25 01:51:45;;;;;;;9.10;8.90;;;8.90;99.90;;;;;;5012515;28;20816;-67
2021/05/25 01:54:11;;;;;;;9.80;9.30;;;8.90;99.90;;;;;;5012535;28;20442;-67
2021/05/25 01:56:38;;;;;;;9.90;9.60;;;8.90;99.90;;;;;;5012344;28;20500;-67
2021/05/25 01:59:04;;;;;;;9.60;9.30;;;8.90;99.90;;;;;;5012146;28;20442;-67
2021/05/25 02:01:31;;;;;;;9.40;9.20;;;8.90;99.90;;;;;;5012233;28;20446;-66
2021/05/25 02:03:57;;;;;;;9.80;9.50;;;8.90;99.90;;;;;;5012442;28;20441;-67
2021/05/25 02:06:23;;;;;;;10.10;9.60;;;8.90;99.90;;;;;;5012178;28;20824;-66
2021/05/25 02:08:50;;;;;;;9.97;9.60;;;8.90;99.90;;;;;;5012143;28;20489;-66
2021/05/25 02:11:16;;;;;;;9.73;9.43;;;8.90;99.90;;;;;;5011920;28;20512;-67
2021/05/25 02:13:43;;;;;;;9.53;9.23;;;8.90;99.90;;;;;;5012168;28;20456;-67
2021/05/25 02:16:12;;;;;;;9.93;9.63;;;8.90;99.90;;;;;;5012108;28;20516;-67
2021/05/25 02:18:42;;;;;;;10.23;9.93;;;8.80;99.90;;;;;;5012046;28;20450;-67
2021/05/25 02:21:09;;;;;;;9.37;9.17;;;8.80;99.90;;;;;;5011935;28;20865;-64
2021/05/25 02:23:36;;;;;;;9.70;9.30;;;8.80;99.90;;;;;;5012038;28;20841;-66
2021/05/25 02:26:03;;;;;;;9.80;9.40;;;8.90;99.90;;;;;;5012066;28;20450;-64
2021/05/25 02:28:29;;;;;;;9.23;8.93;;;9.00;99.90;;;;;;5011891;28;20544;-65
2021/05/25 02:30:56;;;;;;;9.30;9.00;;;9.00;99.90;;;;;;5011749;28;20469;-66
2021/05/25 02:33:24;;;;;;;9.23;9.03;;;9.10;99.90;;;;;;5011842;28;20452;-66
2021/05/25 02:35:53;;;;;;;10.10;9.80;;;9.10;99.90;;;;;;5011786;28;20433;-66
2021/05/25 02:38:19;;;;;;;9.70;9.30;;;9.20;99.90;;;;;;5011805;28;20442;-65
2021/05/25 02:40:48;;;;;;;9.60;9.30;;;9.30;99.90;;;;;;5011479;28;20466;-65
2021/05/25 02:43:16;;;;;;;9.50;9.30;;;9.40;99.90;;;;;;5011728;28;20937;-66
2021/05/25 02:45:43;;;;;;;9.70;9.50;;;9.40;99.90;;;;;;5011744;28;20445;-65
2021/05/25 02:48:10;;;;;;;9.57;9.27;;;9.40;99.90;;;;;;5012810;28;20481;-68
2021/05/25 02:50:37;;;;;;;9.70;9.50;;;9.40;99.90;;;;;;5015298;28;20585;-67
2021/05/25 02:53:04;;;;;;;10.10;9.80;;;9.50;99.90;;;;;;5015742;28;20507;-64
2021/05/25 02:55:32;;;;;;;9.53;9.33;;;9.40;99.90;;;;;;5015685;28;20793;-65
2021/05/25 02:58:00;;;;;;;10.57;9.97;;;9.40;99.90;;;;;;5015690;28;20477;-65
2021/05/25 03:00:29;;;;;;;9.77;9.57;;;9.40;99.90;;;;;;5015252;28;20477;-65
2021/05/25 03:02:56;;;;;;;9.70;9.50;;;9.40;99.90;;;;;;5015221;28;20442;-66
2021/05/25 03:05:25;;;;;;;10.67;10.30;;;9.40;99.90;;;;;;5015651;28;20952;-65
2021/05/25 03:07:52;;;;;;;10.13;9.87;;;9.40;99.90;;;;;;5015407;28;20606;-66
2021/05/25 03:10:21;;;;;;;9.80;9.50;;;9.40;99.90;;;;;;5015267;28;20472;-64
2021/05/25 03:12:47;;;;;;;14.70;9.80;;;9.40;99.90;;;;;;5015346;28;20464;-65
2021/05/25 03:15:16;;;;;;;10.77;10.47;;;9.40;99.90;;;;;;5015376;28;20493;-66
2021/05/25 03:17:43;;;;;;;10.60;10.30;;;9.50;99.90;;;;;;5015402;28;20500;-66
2021/05/25 03:20:12;;;;;;;10.40;10.20;;;9.50;99.90;;;;;;5015180;28;20469;-65
2021/05/25 03:22:39;;;;;;;11.80;11.20;;;9.50;99.90;;;;;;5015255;28;20446;-66
2021/05/25 03:25:08;;;;;;;11.23;10.73;;;9.50;99.90;;;;;;5015215;28;20450;-66
2021/05/25 03:27:35;;;;;;;10.70;10.20;;;9.60;99.90;;;;;;5015098;28;20450;-66
2021/05/25 03:30:01;;;;;;;10.93;10.50;;;9.60;99.90;;;;;;5014854;28;20470;-65
2021/05/25 03:32:27;;;;;;;10.77;10.47;;;9.60;99.90;;;;;;5015058;28;20473;-65
2021/05/25 03:34:53;;;;;;;11.00;10.70;;;9.60;99.90;;;;;;5015112;28;20449;-65
2021/05/25 03:37:20;;;;;;;10.30;10.10;;;9.60;99.90;;;;;;5015044;28;20519;-64
2021/05/25 03:39:47;;;;;;;10.27;9.97;;;9.70;99.90;;;;;;5014595;28;20473;-65
2021/05/25 03:42:13;;;;;;;11.10;10.70;;;9.60;99.90;;;;;;5014728;28;20453;-66
2021/05/25 03:44:39;;;;;;;10.30;10.00;;;9.60;99.90;;;;;;5015005;28;20445;-66
2021/05/25 03:47:05;;;;;;;10.47;10.17;;;9.60;99.90;;;;;;5014728;28;20445;-65
2021/05/25 03:49:31;;;;;;;10.50;10.20;;;9.50;99.90;;;;;;5014347;28;20488;-66
2021/05/25 03:51:58;;;;;;;10.33;10.03;;;9.50;99.90;;;;;;5014529;28;20507;-66
2021/05/25 03:54:28;;;;;;;10.50;10.20;;;9.50;99.90;;;;;;5014650;28;20442;-64
2021/05/25 03:56:57;;;;;;;11.00;10.70;;;9.50;99.90;;;;;;5014541;28;20461;-66
2021/05/25 03:59:23;;;;;;;11.27;10.67;;;9.50;99.90;;;;;;5013730;28;20560;-66
2021/05/25 04:01:50;;;;;;;11.30;11.00;;;9.60;99.90;;;;;;5014431;28;21009;-66
2021/05/25 04:04:16;;;;;;;11.47;10.87;;;9.70;99.90;;;;;;5014372;28;20265;-66
2021/05/25 04:06:42;;;;;;;11.43;11.03;;;9.80;99.90;;;;;;5014480;28;20484;-66
2021/05/25 04:09:09;;;;;;;12.07;11.67;;;9.90;99.90;;;;;;5014249;28;20482;-66
2021/05/25 04:11:35;;;;;;;11.40;11.10;;;10.00;99.90;;;;;;5014218;28;20452;-67
2021/05/25 04:14:03;;;;;;;11.40;11.00;;;9.90;99.90;;;;;;5014355;28;20813;-66
2021/05/25 04:16:29;;;;;;;12.27;11.77;;;10.00;99.90;;;;;;5014370;28;20754;-67
2021/05/25 04:18:55;;;;;;;12.53;12.03;;;10.00;99.90;;;;;;5014102;28;20446;-67
2021/05/25 04:21:22;;;;;;;12.13;11.70;;;10.00;99.90;;;;;;5013979;28;20999;-67
2021/05/25 04:23:48;;;;;;;12.57;12.10;;;10.20;99.90;;;;;;5013652;28;20452;-67
2021/05/25 04:26:14;;;;;;;13.27;12.77;;;10.20;99.90;;;;;;5013991;28;20457;-67
2021/05/25 04:28:40;;;;;;;26.53;13.80;;;10.20;99.90;;;;;;5012875;28;20489;-67
2021/05/25 04:31:07;;;;;;;12.73;12.33;;;10.30;99.90;;;;;;5012441;28;21063;-67
2021/05/25 04:33:33;;;;;;;12.90;12.40;;;10.30;99.90;;;;;;5012647;28;20445;-67
2021/05/25 04:36:00;;;;;;;12.60;12.20;;;10.40;99.90;;;;;;5012686;28;20825;-67
2021/05/25 04:38:26;;;;;;;12.80;12.30;;;10.40;99.90;;;;;;5012601;28;20442;-67
2021/05/25 04:40:52;;;;;;;12.90;12.50;;;10.40;99.90;;;;;;5012010;28;20477;-67
2021/05/25 04:43:19;;;;;;;12.63;12.17;;;10.40;99.90;;;;;;5012369;28;20450;-67
2021/05/25 04:45:46;;;;;;;12.73;12.30;;;10.50;99.90;;;;;;5012959;28;20442;-67
2021/05/25 04:48:14;;;;;;;13.10;12.70;;;10.70;99.90;;;;;;5013305;28;20504;-67
2021/05/25 04:50:42;;;;;;;12.83;12.43;;;10.80;99.90;;;;;;5012968;28;20836;-67
2021/05/25 04:53:08;;;;;;;13.10;12.70;;;10.90;99.90;;;;;;5013022;28;20585;-67
2021/05/25 04:55:34;;;;;;;13.23;12.63;;;11.10;99.90;;;;;;5013220;28;20504;-67
2021/05/25 04:58:00;;;;;;;13.77;13.23;;;11.30;99.90;;;;;;5013109;28;20461;-67
2021/05/25 05:00:28;;;;;;;13.63;13.20;;;11.30;99.90;;;;;;5012778;28;20485;-67
2021/05/25 05:02:55;;;;;;;13.80;13.30;;;11.40;99.90;;;;;;5012901;28;20446;-67
2021/05/25 05:05:23;;;;;;;16.30;15.40;;;11.50;99.90;;;;;;5012989;28;20450;-67
2021/05/25 05:07:50;;;;;;;13.97;13.33;;;11.50;99.90;;;;;;5012733;28;20486;-67
2021/05/25 05:10:17;;;;;;;14.23;13.63;;;11.50;99.90;;;;;;5012071;28;20465;-67
2021/05/25 05:12:43;;;;;;;13.60;13.10;;;11.60;99.90;;;;;;5012548;28;20442;-67
2021/05/25 05:15:12;;;;;;;14.00;13.50;;;11.50;99.90;;;;;;5012997;28;20806;-67
2021/05/25 05:17:38;;;;;;;14.13;13.53;;;11.50;99.90;;;;;;5012816;28;20545;-67
2021/05/25 05:20:06;;;;;;;13.80;13.40;;;11.40;99.90;;;;;;5012486;28;20466;-67
2021/05/25 05:22:33;;;;;;;13.90;13.40;;;11.30;99.90;;;;;;5012573;28;20542;-68
2021/05/25 05:24:59;;;;;;;13.60;13.10;;;11.20;99.90;;;;;;5012744;28;20446;-67
2021/05/25 05:27:25;;;;;;;13.27;12.87;;;11.10;99.90;;;;;;5012535;28;20503;-67
2021/05/25 05:29:52;;;;;;;13.03;12.63;;;11.10;99.90;;;;;;5012141;28;20493;-67
2021/05/25 05:32:18;;;;;;;13.50;12.90;;;11.00;99.90;;;;;;5012294;28;21012;-67
2021/05/25 05:34:44;;;;;;;13.43;12.90;;;11.00;99.90;;;;;;5012595;28;20445;-67
2021/05/25 05:37:11;;;;;;;13.20;12.80;;;11.00;99.90;;;;;;5012395;28;20441;-67
2021/05/25 05:39:38;;;;;;;13.20;12.80;;;11.00;99.90;;;;;;5012155;28;20462;-67
2021/05/25 05:42:05;;;;;;;12.80;12.40;;;11.00;99.90;;;;;;5012172;28;20848;-67
2021/05/25 05:44:32;;;;;;;13.00;12.60;;;10.90;99.90;;;;;;5012374;28;20442;-67
2021/05/25 05:46:58;;;;;;;12.70;12.30;;;10.80;99.90;;;;;;5012412;28;20442;-67
2021/05/25 05:49:24;;;;;;;13.17;12.67;;;10.80;99.90;;;;;;5012101;28;20492;-67
2021/05/25 05:51:51;;;;;;;12.60;12.20;;;10.80;99.90;;;;;;5011660;28;20450;-67
2021/05/25 05:54:17;;;;;;;12.90;12.10;;;10.90;99.90;;;;;;5012081;28;20477;-67
2021/05/25 05:56:47;;;;;;;12.87;12.47;;;11.10;99.90;;;;;;5012070;28;20453;-67
2021/05/25 05:59:13;;;;;;;13.10;12.60;;;11.20;99.90;;;;;;5012563;28;20485;-68
2021/05/25 06:01:39;;;;;;;12.83;12.33;;;11.20;99.90;;;;;;5012149;28;20504;-67
2021/05/25 06:04:06;;;;;;;13.27;12.50;;;11.20;99.90;;;;;;5012212;28;20450;-66
2021/05/25 06:06:32;;;;;;;13.03;12.53;;;11.20;99.90;;;;;;5011926;28;20442;-67
2021/05/25 06:08:58;;;;;;;13.20;12.70;;;11.10;99.90;;;;;;5011986;28;21147;-68
2021/05/25 06:11:24;;;;;;;12.40;11.97;;;11.10;99.90;;;;;;5012003;28;20442;-68
2021/05/25 06:13:51;;;;;;;12.83;12.27;;;11.00;99.90;;;;;;5012040;28;21012;-68
2021/05/25 06:16:18;;;;;;;12.10;11.70;;;10.80;99.90;;;;;;5011960;28;20445;-67
2021/05/25 06:18:44;;;;;;;12.50;12.00;;;10.80;99.90;;;;;;5011795;28;20817;-67
2021/05/25 06:21:10;;;;;;;12.23;11.83;;;10.80;99.90;;;;;;5011705;28;20470;-68
2021/05/25 06:23:36;;;;;;;12.63;12.23;;;10.80;99.90;;;;;;5011609;28;20457;-67
2021/05/25 06:26:03;;;;;;;12.10;11.60;;;10.80;99.90;;;;;;5011921;28;20881;-67
2021/05/25 06:28:31;;;;;;;12.10;11.70;;;11.20;99.90;;;;;;5011727;28;20485;-67
2021/05/25 06:30:59;;;;;;;12.60;12.00;;;11.50;99.90;;;;;;5011469;28;20517;-68
2021/05/25 06:33:25;;;;;;;14.00;13.27;;;11.70;99.90;;;;;;5011812;28;20446;-67
2021/05/25 06:35:52;;;;;;;12.73;12.23;;;11.60;99.90;;;;;;5011659;28;20792;-68
2021/05/25 06:38:19;;;;;;;12.20;11.83;;;11.40;99.90;;;;;;5011467;28;20504;-68
2021/05/25 06:40:45;;;;;;;12.63;12.23;;;11.30;99.90;;;;;;5011388;28;20470;-67
2021/05/25 06:43:11;;;;;;;13.00;12.60;;;11.10;99.90;;;;;;5011384;28;20511;-67
2021/05/25 06:45:38;;;;;;;13.00;12.43;;;10.90;99.90;;;;;;5011501;28;20450;-67
2021/05/25 06:48:06;;;;;;;12.73;12.37;;;10.80;99.90;;;;;;5011419;28;20481;-67
2021/05/25 06:50:33;;;;;;;12.07;11.70;;;10.70;99.90;;;;;;5011084;28;20454;-68
2021/05/25 06:52:59;;;;;;;12.60;11.80;;;10.70;99.90;;;;;;5011337;28;20500;-67
2021/05/25 06:55:25;;;;;;;11.90;11.40;;;10.90;99.90;;;;;;5011438;28;20453;-67
2021/05/25 06:57:51;;;;;;;13.30;12.50;;;11.10;99.90;;;;;;5011365;28;20437;-68
2021/05/25 07:00:18;;;;;;;11.97;11.57;;;11.30;99.90;;;;;;5011091;28;20478;-67
2021/05/25 07:02:45;;;;;;;12.77;12.37;;;11.70;99.90;;;;;;5011490;28;20449;-68
2021/05/25 07:05:12;;;;;;;13.20;12.80;;;11.70;99.90;;;;;;5011582;28;20446;-68
2021/05/25 07:07:39;;;;;;;13.80;13.30;;;12.00;99.90;;;;;;5011597;28;20454;-68
2021/05/25 07:10:06;;;;;;;13.60;13.10;;;12.10;99.90;;;;;;5011428;28;20462;-68
2021/05/25 07:12:32;;;;;;;13.53;13.13;;;12.20;99.90;;;;;;5011932;28;20453;-68
2021/05/25 07:14:59;;;;;;;13.40;13.00;;;12.10;99.90;;;;;;5012114;28;20519;-69
2021/05/25 07:17:25;;;;;;;13.90;13.40;;;12.10;99.90;;;;;;5011927;28;20868;-68
2021/05/25 07:19:51;;;;;;;14.47;13.97;;;11.90;99.90;;;;;;5011570;28;20465;-68
2021/05/25 07:22:18;;;;;;;14.27;13.70;;;12.00;99.90;;;;;;5011686;28;20449;-68
2021/05/25 07:24:46;;;;;;;13.80;13.40;;;11.80;99.90;;;;;;5012628;28;20477;-67
2021/05/25 07:27:12;;;;;;;14.10;13.70;;;11.70;99.90;;;;;;5012486;28;21004;-66
2021/05/25 07:29:39;;;;;;;13.60;13.20;;;12.00;99.90;;;;;;5012533;28;20845;-67
2021/05/25 07:32:06;;;;;;;14.17;13.67;;;12.30;99.90;;;;;;5011578;28;20446;-67
2021/05/25 07:34:32;;;;;;;13.70;13.30;;;12.50;99.90;;;;;;5013329;28;20446;-68
2021/05/25 07:36:58;;;;;;;14.30;13.83;;;12.50;99.90;;;;;;5015632;28;20930;-68
2021/05/25 07:39:25;;;;;;;14.10;13.47;;;12.30;99.90;;;;;;5016158;28;20516;-68
2021/05/25 07:41:51;;;;;;;13.93;13.43;;;12.10;99.90;;;;;;5015400;28;20664;-67
2021/05/25 07:44:17;;;;;;;13.90;13.40;;;12.10;99.90;;;;;;5015596;28;20454;-68
2021/05/25 07:46:44;;;;;;;13.30;12.90;;;12.20;99.90;;;;;;5015821;28;20446;-68
2021/05/25 07:49:10;;;;;;;13.10;12.80;;;12.40;99.90;;;;;;5015661;28;20873;-68
2021/05/25 07:51:36;;;;;;;14.00;13.50;;;12.40;99.90;;;;;;5016179;28;20450;-68
2021/05/25 07:54:03;;;;;;;13.60;13.20;;;12.80;99.90;;;;;;5016882;28;20446;-68
2021/05/25 07:56:30;;;;;;;13.60;13.20;;;12.80;99.90;;;;;;5015853;28;20442;-68
2021/05/25 07:58:56;;;;;;;14.00;13.60;;;12.90;99.90;;;;;;5015645;28;20450;-68
2021/05/25 08:01:22;;;;;;;14.03;13.43;;;13.20;99.90;;;;;;5016377;28;20859;-68
2021/05/25 08:03:48;;;;;;;13.30;12.90;;;13.50;99.90;;;;;;5016099;28;20461;-68
2021/05/25 08:06:14;;;;;;;14.20;13.80;;;13.60;99.90;;;;;;5015785;28;20553;-68
2021/05/25 08:08:41;;;;;;;14.80;14.23;;;13.80;99.90;;;;;;5015686;28;20485;-67
2021/05/25 08:11:12;;;;;;;14.20;13.80;;;14.10;99.90;;;;;;5015405;28;20493;-68
2021/05/25 08:13:40;;;;;;;15.50;15.03;;;13.80;99.90;;;;;;5015676;28;20449;-67
2021/05/25 08:16:06;;;;;;;15.50;14.90;;;13.50;99.90;;;;;;5016647;28;20449;-68
2021/05/25 08:18:44;;;;;;;15.10;14.70;;;13.40;99.90;;;;;;5016817;28;20442;-67
2021/05/25 08:21:10;;;;;;;15.00;14.60;;;13.50;99.90;;;;;;5014933;28;20469;-68
2021/05/25 08:23:37;;;;;;;14.80;14.30;;;13.50;99.90;;;;;;5015035;28;20446;-64
2021/05/25 08:26:05;;;;;;;15.33;14.93;;;13.60;99.90;;;;;;5015377;28;20456;-68
2021/05/25 08:28:31;;;;;;;16.20;15.70;;;13.60;99.90;;;;;;5015132;28;20577;-68
2021/05/25 08:30:58;;;;;;;16.73;16.13;;;13.40;99.90;;;;;;5014830;28;20874;-67
2021/05/25 08:33:24;;;;;;;16.23;15.73;;;13.70;99.90;;;;;;5015384;28;20449;-68
2021/05/25 08:35:51;;;;;;;16.27;15.57;;;14.00;99.90;;;;;;5015119;28;20473;-66
2021/05/25 08:38:21;;;;;;;15.90;15.40;;;14.00;99.90;;;;;;5015227;28;20438;-68
2021/05/25 08:40:48;;;;;;;16.50;15.90;;;14.00;99.90;;;;;;5015443;28;20901;-68
2021/05/25 08:43:14;;;;;;;16.30;15.50;;;14.00;99.90;;;;;;5015309;28;20824;-68
2021/05/25 08:45:41;;;;;;;17.10;16.50;;;14.20;99.90;;;;;;5014943;28;20450;-68
2021/05/25 08:48:09;;;;;;;16.47;15.77;;;14.30;99.90;;;;;;5015135;28;20481;-67
2021/05/25 08:50:35;;;;;;;16.90;16.20;;;14.70;99.90;;;;;;5014934;28;20470;-68
2021/05/25 08:53:03;;;;;;;17.27;16.43;;;15.20;99.90;;;;;;5015176;28;20683;-66
2021/05/25 08:55:32;;;;;;;16.23;15.67;;;15.20;99.20;;;;;;5015145;28;20450;-66
2021/05/25 08:57:59;;;;;;;17.03;16.33;;;15.70;99.60;;;;;;5014558;28;20457;-65
2021/05/25 09:00:26;;;;;;;16.87;16.27;;;15.60;99.60;;;;;;5014983;28;20482;-68
2021/05/25 09:02:52;;;;;;;16.10;15.60;;;15.30;98.30;;;;;;5014892;28;20490;-68
2021/05/25 09:05:20;;;;;;;16.40;15.90;;;15.70;98.40;;;;;;5015879;28;20465;-67
2021/05/25 09:07:49;;;;;;;16.43;15.83;;;16.00;98.40;;;;;;5015869;28;20453;-67
2021/05/25 09:10:18;;;;;;;16.33;15.77;;;15.70;97.40;;;;;;5015647;28;20577;-68
2021/05/25 09:12:46;;;;;;;16.10;15.60;;;15.90;97.50;;;;;;5015695;28;20450;-67
2021/05/25 09:15:15;;;;;;;16.50;15.97;;;16.30;97.10;;;;;;5015752;28;20453;-68
2021/05/25 09:17:41;;;;;;;15.50;15.00;;;16.40;96.30;;;;;;5016045;28;20450;-68
2021/05/25 09:20:09;;;;;;;14.83;14.43;;;16.90;95.60;;;;;;5015474;28;20473;-67
2021/05/25 09:22:38;;;;;;;14.50;14.10;;;17.40;94.70;;;;;;5015317;28;21022;-67
2021/05/25 09:25:16;;;;;;;15.70;15.00;;;17.20;92.10;;;;;;5015101;28;20454;-68
2021/05/25 09:27:46;;;;;;;14.70;14.20;;;17.20;92.60;;;;;;5015801;28;20849;-67
2021/05/25 09:30:18;;;;;;;15.13;14.53;;;17.00;92.10;;;;;;5013974;28;20490;-67
2021/05/25 09:32:48;;;;;;;15.47;14.67;;;17.00;91.90;;;;;;5015863;28;20454;-69
2021/05/25 09:35:16;;;;;;;15.40;14.90;;;17.50;92.10;;;;;;5015376;28;20442;-67
2021/05/25 09:37:44;;;;;;;16.07;15.37;;;17.40;91.20;;;;;;5014681;28;20449;-65
2021/05/25 09:40:12;;;;;;;15.33;14.93;;;17.20;91.10;;;;;;5014544;28;20462;-68
2021/05/25 09:42:38;;;;;;;16.13;15.63;;;17.70;91.40;;;;;;5014722;28;20441;-67
2021/05/25 09:45:08;;;;;;;15.50;14.90;;;18.10;88.60;;;;;;5014483;28;20505;-66
2021/05/25 09:47:36;;;;;;;14.87;14.37;;;18.00;87.20;;;;;;5014686;28;20991;-67
2021/05/25 09:50:04;;;;;;;15.07;14.63;;;17.30;88.20;;;;;;5013496;28;20528;-67
2021/05/25 09:52:30;;;;;;;19.83;19.03;;;16.30;90.90;;;;;;5013360;28;20446;-66
2021/05/25 09:55:09;;;;;;;5.23;4.93;;;15.00;99.90;;;;;;5012207;28;20508;-66
2021/05/25 09:57:57;;;;;;;12.70;2.53;;;13.00;99.90;;;;;;5011635;28;20500;-66
2021/05/25 10:00:26;;;;;;;1.97;1.87;;;12.00;99.90;;;;;;5008463;28;20897;-66
2021/05/25 10:03:12;;;;;;;7.13;6.80;;;11.90;99.90;;;;;;5011881;28;20446;-67
2021/05/25 10:05:39;;;;;;;9.40;9.10;;;12.20;99.90;;;;;;5012050;28;20438;-67
2021/05/25 10:08:06;;;;;;;15.03;14.40;;;12.50;99.90;;;;;;5011811;28;20500;-66
2021/05/25 10:10:34;;;;;;;18.00;17.10;;;13.00;99.90;;;;;;5011690;28;20481;-67
2021/05/25 10:13:01;;;;;;;18.47;17.67;;;13.20;99.90;;;;;;5011814;28;20454;-66
2021/05/25 10:15:28;;;;;;;18.27;17.47;;;13.30;99.90;;;;;;5011770;28;20504;-68
2021/05/25 10:20:39;;;;;;;17.60;17.00;;;13.70;99.90;;;;;;5011598;28;20473;-66
2021/05/25 10:23:06;;;;;;;17.90;17.30;;;14.60;99.90;;;;;;5011778;28;20453;-66
2021/05/25 10:25:36;;;;;;;17.10;16.33;;;14.90;99.90;;;;;;5011644;28;20446;-67
2021/05/25 10:28:08;;;;;;;18.17;17.37;;;15.20;99.90;;;;;;5011705;28;20450;-68
2021/05/25 10:30:36;;;;;;;17.90;17.10;;;15.40;99.90;;;;;;5011369;28;20466;-66
2021/05/25 10:33:33;;;;;;;17.20;16.60;;;15.80;99.90;;;;;;5011745;28;20469;-67
2021/05/25 10:36:05;;;;;;;17.23;16.53;;;15.90;99.90;;;;;;5003514;28;20462;-67
2021/05/25 10:38:32;;;;;;;18.30;17.33;;;16.00;99.90;;;;;;5012074;28;20434;-68
2021/05/25 10:41:01;;;;;;;18.00;17.30;;;15.90;99.90;;;;;;5011746;28;21002;-67
2021/05/25 10:43:45;;;;;;;17.90;17.20;;;15.80;99.90;;;;;;5011755;28;20442;-67
2021/05/25 10:46:16;;;;;;;18.00;17.13;;;16.30;99.90;;;;;;5011951;28;20453;-67
2021/05/25 10:48:58;;;;;;;18.53;17.73;;;17.10;99.90;;;;;;5011996;28;20508;-68
2021/05/25 10:52:16;;;;;;;18.60;17.90;;;17.40;99.90;;;;;;5011886;28;20540;-68
2021/05/25 10:54:57;;;;;;;18.10;17.30;;;16.40;99.90;;;;;;5012466;28;20445;-67
2021/05/25 10:57:48;;;;;;;17.93;17.23;;;14.90;99.90;;;;;;5012837;28;20468;-66
2021/05/25 11:00:35;;;;;;;16.67;16.07;;;13.90;99.90;;;;;;5012855;28;20573;-67
2021/05/25 11:03:03;;;;;;;16.40;15.80;;;13.60;99.90;;;;;;5007079;28;20469;-67
2021/05/25 11:05:54;;;;;;;16.60;15.90;;;13.50;99.90;;;;;;5013759;28;20442;-66
2021/05/25 11:08:37;;;;;;;16.10;15.50;;;13.50;99.90;;;;;;5013329;28;20956;-67
2021/05/25 11:11:32;;;;;;;16.87;16.27;;;13.00;99.90;;;;;;5016912;28;20916;-68
2021/05/25 11:14:12;;;;;;;16.47;15.67;;;12.70;99.90;;;;;;4992117;28;20469;-68
2021/05/25 11:16:39;;;;;;;16.60;15.70;;;13.00;99.90;;;;;;5016247;28;20475;-67
2021/05/25 11:22:14;;;;;;;16.37;15.67;;;13.90;99.90;;;;;;5012324;28;20434;-67
2021/05/25 11:24:43;;;;;;;16.23;15.53;;;14.70;99.90;;;;;;5015642;28;20812;-67
2021/05/25 11:27:11;;;;;;;16.13;15.43;;;15.60;99.90;;;;;;5015090;28;20500;-67
2021/05/25 11:29:48;;;;;;;16.80;16.10;;;16.00;99.90;;;;;;5015334;28;20524;-67
2021/05/25 11:32:16;;;;;;;17.50;16.70;;;16.10;99.90;;;;;;5015589;28;20535;-68
2021/05/25 11:34:43;;;;;;;17.97;16.90;;;16.60;99.90;;;;;;5015565;28;20740;-68
2021/05/25 11:37:11;;;;;;;18.63;17.93;;;16.90;99.90;;;;;;5015379;28;20450;-68
2021/05/25 11:39:38;;;;;;;20.00;19.20;;;17.10;98.00;;;;;;5015288;28;20465;-68
2021/05/25 11:42:07;;;;;;;18.97;18.27;;;17.80;97.90;;;;;;5014822;28;20442;-68
2021/05/25 11:44:38;;;;;;;20.57;19.70;;;19.10;96.60;;;;;;5014857;28;20547;-67
2021/05/25 11:47:06;;;;;;;21.17;20.17;;;22.30;85.50;;;;;;5015310;28;20441;-68
2021/05/25 11:49:35;;;;;;;21.37;20.37;;;25.00;64.00;;;;;;5014806;28;20517;-66
2021/05/25 11:52:16;;;;;;;20.77;20.07;;;27.20;53.80;;;;;;5014578;28;20442;-66
2021/05/25 11:54:43;;;;;;;21.10;20.30;;;26.30;46.50;;;;;;5015065;28;20448;-66
2021/05/25 11:57:31;;;;;;;20.63;19.83;;;27.70;45.60;;;;;;5015187;28;20476;-65
2021/05/25 11:59:59;;;;;;;20.23;19.33;;;30.30;43.50;;;;;;5015920;28;20479;-67
2021/05/25 12:02:27;;;;;;;20.13;19.30;;;33.30;39.50;;;;;;5015260;28;20445;-66
2021/05/25 12:05:05;;;;;;;20.80;19.87;;;32.40;34.50;;;;;;5014852;28;20507;-66
2021/05/25 12:07:32;;;;;;;19.80;19.10;;;29.10;35.00;;;;;;5014721;28;20503;-66
2021/05/25 12:10:00;;;;;;;19.40;18.60;;;25.80;39.60;;;;;;5014229;28;20928;-67
2021/05/25 12:12:27;;;;;;;19.10;18.40;;;23.10;44.00;;;;;;5014222;28;20453;-69
2021/05/25 12:14:53;;;;;;;1.57;1.47;;;19.60;50.10;;;;;;5013931;28;20986;-66
2021/05/25 12:17:25;;;;;;;3.43;2.63;;;15.30;99.90;;;;;;5013887;28;20446;-65
2021/05/25 12:19:53;;;;;;;2.30;2.10;;;13.10;99.90;;;;;;5013392;28;20470;-65
2021/05/25 12:22:32;;;;;;;1.40;1.30;;;11.60;99.90;;;;;;5013602;28;20704;-64
2021/05/25 12:25:13;;;;;;;2.07;1.53;;;11.00;99.90;;;;;;5013655;28;20456;-66
2021/05/25 12:27:40;;;;;;;3.97;1.70;;;10.50;99.90;;;;;;5013759;28;20446;-65
2021/05/25 12:30:08;;;;;;;2.33;1.73;;;10.40;99.90;;;;;;5013465;28;20508;-65
2021/05/25 12:32:35;;;;;;;1.97;1.50;;;10.20;99.90;;;;;;5013321;28;20525;-65
2021/05/25 12:35:02;;;;;;;2.60;1.83;;;10.20;99.90;;;;;;5013682;28;20504;-65
2021/05/25 12:37:29;;;;;;;1.30;1.30;;;10.50;99.90;;;;;;5013502;28;20941;-65
2021/05/25 12:40:01;;;;;;;1.60;1.50;;;11.50;99.90;;;;;;5013378;28;20462;-65
2021/05/25 12:42:34;;;;;;;4.10;1.57;;;12.20;99.90;;;;;;5013317;28;20445;-65
2021/05/25 12:45:09;;;;;;;6.60;2.37;;;12.60;99.90;;;;;;5013452;28;20446;-65
2021/05/25 12:48:00;;;;;;;2.50;2.40;;;13.00;99.90;;;;;;5013403;28;20545;-65